createdAt,value
2023-04-25T00:00:21.968Z,10.10
2023-04-25T00:10:25.536Z,9.80
2023-04-25T00:20:31.067Z,9.50
2023-04-25T00:30:34.456Z,9.30
2023-04-25T00:40:39.370Z,9.20
2023-04-25T00:50:43.224Z,9.20
2023-04-25T01:00:49.602Z,9.10
2023-04-25T01:10:53.076Z,9.10
2023-04-25T01:20:58.066Z,9.10
2023-04-25T01:31:03.465Z,9.10
2023-04-25T01:41:07.910Z,9.10
2023-04-25T01:51:14.020Z,9.10
2023-04-25T02:01:17.617Z,9.10
2023-04-25T02:11:30.106Z,9.00
2023-04-25T02:21:53.075Z,9.00
2023-04-25T02:31:58.056Z,9.00
2023-04-25T02:42:03.769Z,8.90
2023-04-25T02:52:08.525Z,9.10
2023-04-25T03:02:12.554Z,9.00
2023-04-25T03:12:18.044Z,8.90
2023-04-25T03:22:21.640Z,9.00
2023-04-25T03:32:26.881Z,8.90
2023-04-25T03:42:30.500Z,8.70
2023-04-25T03:52:35.574Z,8.60
2023-04-25T04:02:40.640Z,8.50
2023-04-25T04:12:48.395Z,8.40
2023-04-25T04:22:51.934Z,8.30
2023-04-25T04:32:58.523Z,8.30
2023-04-25T04:43:02.945Z,8.30
2023-04-25T04:53:26.531Z,8.30
2023-04-25T05:03:53.455Z,8.30
2023-04-25T05:14:21.309Z,8.40
2023-04-25T05:24:43.248Z,8.50
2023-04-25T05:35:04.518Z,8.40
2023-04-25T05:45:19.294Z,8.30
2023-04-25T05:55:31.443Z,8.40
2023-04-25T06:05:37.153Z,8.60
2023-04-25T06:15:42.393Z,8.70
2023-04-25T06:25:45.920Z,8.80
2023-04-25T06:35:51.358Z,8.90
2023-04-25T06:45:59.853Z,9.10
2023-04-25T06:56:08.447Z,8.80
2023-04-25T07:06:33.870Z,9.00
2023-04-25T07:16:38.914Z,10.10
2023-04-25T07:26:42.618Z,10.90
2023-04-25T07:36:57.964Z,11.60
2023-04-25T07:47:05.487Z,12.10
2023-04-25T07:57:10.493Z,12.30
2023-04-25T08:07:15.224Z,12.70
2023-04-25T08:17:27.749Z,13.40
2023-04-25T08:27:31.969Z,13.70
2023-04-25T08:37:38.528Z,12.90
2023-04-25T08:47:50.805Z,12.30
2023-04-25T08:57:58.422Z,12.70
2023-04-25T09:08:02.926Z,11.40
2023-04-25T09:18:08.388Z,10.50
2023-04-25T09:28:17.566Z,11.70
2023-04-25T09:38:22.715Z,12.50
2023-04-25T09:48:29.114Z,13.40
2023-04-25T09:58:37.920Z,13.10
2023-04-25T10:08:41.891Z,13.10
2023-04-25T10:18:46.724Z,13.60
2023-04-25T10:29:08.083Z,13.80
2023-04-25T10:39:12.817Z,13.20
2023-04-25T10:49:35.657Z,14.10
2023-04-25T10:59:42.660Z,14.80
2023-04-25T11:09:47.978Z,16.00
2023-04-25T11:19:52.715Z,15.50
2023-04-25T11:29:56.053Z,14.30
2023-04-25T11:40:00.823Z,13.30
2023-04-25T11:50:06.777Z,12.30
2023-04-25T12:00:18.596Z,11.70
2023-04-25T12:10:23.831Z,11.60
2023-04-25T12:20:28.798Z,11.50
2023-04-25T12:30:32.379Z,11.20
2023-04-25T12:40:37.346Z,11.10
2023-04-25T12:50:40.962Z,11.70
2023-04-25T13:00:46.402Z,11.50
2023-04-25T13:10:50.308Z,11.00
2023-04-25T13:20:55.219Z,10.80
2023-04-25T13:30:59.067Z,10.70
2023-04-25T13:41:03.830Z,10.80
2023-04-25T13:51:07.368Z,10.60
2023-04-25T14:01:12.179Z,11.30
2023-04-25T14:11:15.526Z,11.30
2023-04-25T14:21:21.423Z,10.80
2023-04-25T14:31:24.888Z,10.20
2023-04-25T14:41:29.981Z,10.30
2023-04-25T14:51:33.470Z,10.70
2023-04-25T15:01:39.060Z,10.50
2023-04-25T15:11:42.910Z,10.70
2023-04-25T15:21:47.722Z,10.90
2023-04-25T15:31:51.379Z,11.30
2023-04-25T15:41:56.391Z,11.70
2023-04-25T15:51:59.786Z,12.00
2023-04-25T16:02:04.680Z,12.10
2023-04-25T16:12:11.325Z,11.90
2023-04-25T16:22:16.382Z,11.50
2023-04-25T16:32:19.809Z,11.10
2023-04-25T16:42:24.666Z,10.60
2023-04-25T16:52:28.160Z,10.40
2023-04-25T17:02:33.235Z,10.10
2023-04-25T17:12:36.919Z,10.00
2023-04-25T17:22:41.840Z,9.40
2023-04-25T17:32:46.309Z,8.80
2023-04-25T17:42:51.302Z,8.50
2023-04-25T17:52:54.642Z,7.90
2023-04-25T18:02:59.483Z,7.50
2023-04-25T18:13:03.311Z,6.80
2023-04-25T18:23:08.083Z,6.00
2023-04-25T18:33:11.499Z,5.50
2023-04-25T18:43:16.381Z,5.00
2023-04-25T18:53:19.759Z,4.70
2023-04-25T19:03:24.909Z,4.30
2023-04-25T19:13:29.204Z,4.10
2023-04-25T19:23:34.154Z,3.70
2023-04-25T19:33:38.694Z,3.60
2023-04-25T19:43:43.487Z,3.40
2023-04-25T19:53:46.959Z,3.10
2023-04-25T20:03:52.784Z,3.00
2023-04-25T20:13:58.397Z,3.00
2023-04-25T20:24:03.455Z,3.20
2023-04-25T20:34:06.896Z,3.50
2023-04-25T20:44:12.592Z,3.90
2023-04-25T20:54:16.048Z,3.90
2023-04-25T21:04:20.990Z,4.10
2023-04-25T21:14:25.921Z,3.90
2023-04-25T21:24:31.330Z,3.60
2023-04-25T21:34:34.720Z,3.50
2023-04-25T21:44:40.027Z,3.90
2023-04-25T21:54:43.453Z,4.30
2023-04-25T22:04:48.490Z,4.60
2023-04-25T22:14:52.126Z,4.90
2023-04-25T22:24:56.902Z,5.00
2023-04-25T22:35:00.242Z,5.20
2023-04-25T22:45:06.092Z,5.30
2023-04-25T22:55:10.819Z,5.40
2023-04-25T23:05:16.172Z,5.50
2023-04-25T23:15:20.774Z,5.60
2023-04-25T23:25:26.014Z,5.70
2023-04-25T23:35:29.435Z,5.70
2023-04-25T23:45:34.656Z,5.70
2023-04-25T23:55:38.131Z,5.70
